Aérodrome :
LOGIN :

S'inscrire | Disclaimer

   EN    FR    IT 

 










Légende :    VFR   VFR Marginal   IFR   IFR Intensif   IFR Très Intensif
Visi : 
Plafond : 
>= 8 km
>= 3000ft
5 à 8 km
1000 à 3000 ft
1500m à 5 km
500 à 1000 ft
800 à 1500m
200 à 500 ft
< 800m
< 200 ft
Symboles :   Orages  Brouillard  Fortes neiges  Fortes précipitations  Vent > 20 kt
SIGMETs :   Divers  Orages  Givrage  Turbulence  Onde Orograph.  Cendres Volcan.






- Altitude de l'aérodrome : 776 ft
- Code IATA : RMS


ETAR - Ramstein Air Base

DERNIER METAR :
  • 250611Z 00000KT 6000 -SN BR FEW003 OVC014 00/00 A2949 RMK AO2A VIS 4000 RWY08 VIS 4400 RWY08/26 VIS 4400 RWY09 VIS 4400 RWY09/27 SLP003 FZRANO $

METARs EXPIRÉS :
  • 250545Z 00000KT 4000 -SN BR OVC011 00/00 A2949 RMK AO2A VIS 3000 RWY08 VIS 3200 RWY08/26 VIS 2800 RWY09 VIS 3200 RWY09/27 SNB0440E0458SNB08 SLP002 FZRANO $
  • 250456Z 00000KT 9999 BKN017 OVC023 00/00 A2948 RMK AO2A CIG 015 RWY08 SLP999 P0001 T10031003 FZRANO $
  • 250416Z 00000KT 8000 -SN BR BKN013 00/00 A2948 RMK AO2A SLP999 FZRANO $
  • 250356Z 00000KT 9999 -SN BKN017 00/00 A2948 RMK AO2A SNB27 CIG 016 RWY08 SLP997 P0000 T00040004 FZRANO $
  • 250343Z 00000KT 9000 -SN FEW014 OVC018 01/01 A2948 RMK AO2A SNB27 SLP997 FZRANO $

TAF TAF ETAR
Valide du 24 à 18h jusqu'au 26 à 00h UTC


241800Z 2418/2524 22009KT 9999 SCT025 BKN040 QNH2948INS
BECMG 2423/2424 VRB06KT 5000 -SN OVC010 620105 QNH2945INS
BECMG 2507/2508 12009KT 9999 NSW BKN015 OVC025 QNH2953INS
BECMG 2514/2515 35006KT 9999 SCT015 QNH2965INS TX03/2513Z TNM03/2502Z



MET'MAP, la Météo Aéronautique d'un coup d'oeil ! - Copyright ORBIFLY Décembre 2007 - Disclaimer

ORBIFLY MET'MAP TEAM :

Programmation & Développement : Alexandra Zaïnal
Sur une idée originale de : Baudouin d'Aumeries
Assistance à la programmation : Marc-Olivier Méhu
Soutien technique & logistique : Manuel Goepfert

Contact : metmap@orbifly.com




SOURCES & CREDITS :

   NOAA